aviador You're here:

KLAF Decoded Metar

LAFAYETTE in IN, USA
Report Time2017-03-25 16:54:00
UTC Time2017-03-25 17:22:19
Flight Rules vfr VFR
Wind190° at 13 Gusting to 21 kt
W.Decomp.*RWY 23: 10.1 kt HW 8.2 kt LCW
RWY 28: 0.2 kt HW 13 kt LCW
W.Rank190° ranks 10
Current wind is above 190° avg. (6.8)
Visibility9999 m
Phenomena:N/A
Clouds:Few 075 Hf
Expected CloudBase > 4,000 ft AGL from Temp-Dew spread
CeilingNone
Temp21°C (ISA +7)
Dew Point11°C (53% RH)
AAT16.7°C
QNH1015 hPa
Density Alt1,545 ft
Elevation597 ft
Report Wrong Elevation
Raw Report
KLAF 251654Z 19013G21KT 10SM FEW075 21/11 A2997 RMK AO2 SLP146
T02110111=

Extra information for KLAF:More info

Metar Taf Metar & Taf Last 4 Metars F.Rules Stats Wind Profile Meteogram Temp Stats Airport Information Weather charts Add Link Nearby VenuesMetar ALERT Operation Metar Decoded Social comments

AIRNAV info for KLAF